createdAt,value
2024-03-16T00:00:59.225Z,14.60
2024-03-16T00:03:47.606Z,15.70
2024-03-16T00:06:16.057Z,13.10
2024-03-16T00:08:44.809Z,13.30
2024-03-16T00:11:13.126Z,14.20
2024-03-16T00:13:41.600Z,14.40
2024-03-16T00:16:09.838Z,11.60
2024-03-16T00:18:38.491Z,11.80
2024-03-16T00:21:07.582Z,14.70
2024-03-16T00:23:36.098Z,15.10
2024-03-16T00:26:04.466Z,14.20
2024-03-16T00:28:34.578Z,14.20
2024-03-16T00:31:05.220Z,15.50
2024-03-16T00:33:34.412Z,18.80
2024-03-16T00:36:02.552Z,13.90
2024-03-16T00:38:30.828Z,12.50
2024-03-16T00:40:59.263Z,17.10
2024-03-16T00:43:28.107Z,14.50
2024-03-16T00:45:56.411Z,14.40
2024-03-16T00:48:24.811Z,13.40
2024-03-16T00:50:53.031Z,17.00
2024-03-16T00:53:21.628Z,15.00
2024-03-16T00:55:50.103Z,12.80
2024-03-16T00:58:18.319Z,12.70
2024-03-16T01:00:46.601Z,11.80
2024-03-16T01:03:14.832Z,10.60
2024-03-16T01:05:43.113Z,12.90
2024-03-16T01:08:11.385Z,11.90
2024-03-16T01:10:40.309Z,12.90
2024-03-16T01:13:08.777Z,15.50
2024-03-16T01:15:37.158Z,9.80
2024-03-16T01:18:05.336Z,10.80
2024-03-16T01:20:33.496Z,7.80
2024-03-16T01:23:04.235Z,12.00
2024-03-16T01:25:32.523Z,9.30
2024-03-16T01:28:00.648Z,10.00
2024-03-16T01:30:28.921Z,8.90
2024-03-16T01:32:57.352Z,9.10
2024-03-16T01:35:25.518Z,8.90
2024-03-16T01:37:54.096Z,9.10
2024-03-16T01:40:26.138Z,10.50
2024-03-16T01:42:54.988Z,11.80
2024-03-16T01:45:23.432Z,11.60
2024-03-16T01:47:54.057Z,11.10
2024-03-16T01:50:23.173Z,12.40
2024-03-16T01:52:51.660Z,12.80
2024-03-16T01:55:21.053Z,12.10
2024-03-16T01:57:49.775Z,12.70
2024-03-16T02:00:19.036Z,10.90
2024-03-16T02:02:47.314Z,14.40
2024-03-16T02:05:15.802Z,14.00
2024-03-16T02:07:45.596Z,15.30
2024-03-16T02:10:13.847Z,12.80
2024-03-16T02:12:43.408Z,11.40
2024-03-16T02:15:12.396Z,10.50
2024-03-16T02:17:41.013Z,8.60
2024-03-16T02:20:15.504Z,9.00
2024-03-16T02:22:44.287Z,7.90
2024-03-16T02:25:12.581Z,9.20
2024-03-16T02:27:41.434Z,10.40
2024-03-16T02:30:11.885Z,9.20
2024-03-16T02:32:40.416Z,9.40
2024-03-16T02:35:11.716Z,9.50
2024-03-16T02:37:40.018Z,11.80
2024-03-16T02:40:12.972Z,8.90
2024-03-16T02:42:44.980Z,11.60
2024-03-16T02:45:13.437Z,9.90
2024-03-16T02:47:41.621Z,10.20
2024-03-16T02:50:11.724Z,10.80
2024-03-16T02:52:40.632Z,10.40
2024-03-16T02:55:09.573Z,10.00
2024-03-16T02:57:37.854Z,10.50
2024-03-16T03:00:12.777Z,9.20
2024-03-16T03:02:41.512Z,9.30
2024-03-16T03:05:12.821Z,9.20
2024-03-16T03:07:41.239Z,8.80
2024-03-16T03:10:10.262Z,8.90
2024-03-16T03:12:40.491Z,9.10
2024-03-16T03:15:10.713Z,7.80
2024-03-16T03:17:40.656Z,12.90
2024-03-16T03:20:10.197Z,6.90
2024-03-16T03:22:38.716Z,7.10
2024-03-16T03:25:07.683Z,7.40
2024-03-16T03:27:36.137Z,7.20
2024-03-16T03:30:04.768Z,8.20
2024-03-16T03:32:34.058Z,6.30
2024-03-16T03:35:02.430Z,7.80
2024-03-16T03:37:30.811Z,7.20
2024-03-16T03:39:59.545Z,6.10
2024-03-16T03:42:30.921Z,7.00
2024-03-16T03:45:12.661Z,7.30
2024-03-16T03:48:04.616Z,8.30
2024-03-16T03:50:39.981Z,8.20
2024-03-16T03:53:08.195Z,9.20
2024-03-16T03:55:36.300Z,10.00
2024-03-16T03:58:04.809Z,8.70
2024-03-16T04:00:34.351Z,7.20
2024-03-16T04:03:05.586Z,10.30
2024-03-16T04:05:34.725Z,11.30
2024-03-16T04:08:03.800Z,8.60
2024-03-16T04:10:32.381Z,10.30
2024-03-16T04:13:00.596Z,11.10
2024-03-16T04:15:29.027Z,14.30
2024-03-16T04:17:57.483Z,12.20
2024-03-16T04:20:25.706Z,10.10
2024-03-16T04:22:54.443Z,14.20
2024-03-16T04:25:23.211Z,10.50
2024-03-16T04:27:51.801Z,10.80
2024-03-16T04:30:20.562Z,11.90
2024-03-16T04:32:48.747Z,10.10
2024-03-16T04:35:17.207Z,8.90
2024-03-16T04:37:46.308Z,8.40
2024-03-16T04:40:14.792Z,7.30
2024-03-16T04:42:43.606Z,6.30
2024-03-16T04:45:11.950Z,6.30
2024-03-16T04:47:40.185Z,7.60
2024-03-16T04:50:08.953Z,6.30
2024-03-16T04:52:37.200Z,7.70
2024-03-16T04:55:06.006Z,6.20
2024-03-16T04:57:34.194Z,6.80
2024-03-16T05:00:02.542Z,7.00
2024-03-16T05:02:32.017Z,6.70
2024-03-16T05:05:00.268Z,7.10
2024-03-16T05:07:28.577Z,10.30
2024-03-16T05:09:56.916Z,7.70
2024-03-16T05:12:26.408Z,9.70
2024-03-16T05:14:54.653Z,6.40
2024-03-16T05:17:22.796Z,7.70
2024-03-16T05:19:53.362Z,7.00
2024-03-16T05:22:21.712Z,9.90
2024-03-16T05:24:50.156Z,9.20
2024-03-16T05:27:18.512Z,7.80
2024-03-16T05:29:46.675Z,8.80
2024-03-16T05:32:15.684Z,7.50
2024-03-16T05:34:43.788Z,8.10
2024-03-16T05:37:12.077Z,8.40
2024-03-16T05:39:40.333Z,7.90
2024-03-16T05:42:08.691Z,9.40
2024-03-16T05:44:36.857Z,8.70
2024-03-16T05:47:05.036Z,8.10
2024-03-16T05:49:33.730Z,12.00
2024-03-16T05:52:02.161Z,8.90
2024-03-16T05:54:35.630Z,12.00
2024-03-16T05:57:05.233Z,9.90
2024-03-16T05:59:34.864Z,9.90
2024-03-16T06:02:03.282Z,10.90
2024-03-16T06:04:31.784Z,10.40
2024-03-16T06:07:00.135Z,13.20
2024-03-16T06:09:28.661Z,11.80
2024-03-16T06:11:57.019Z,8.00
2024-03-16T06:14:25.608Z,8.50
2024-03-16T06:16:53.804Z,7.50
2024-03-16T06:19:22.174Z,8.00
2024-03-16T06:21:50.452Z,8.50
2024-03-16T06:24:18.768Z,8.40
2024-03-16T06:26:53.891Z,11.10
2024-03-16T06:29:27.489Z,5.80
2024-03-16T06:32:06.525Z,7.30
2024-03-16T06:34:35.479Z,5.60
2024-03-16T06:37:04.597Z,7.50
2024-03-16T06:39:33.020Z,7.10
2024-03-16T06:42:01.345Z,6.00
2024-03-16T06:44:29.622Z,7.20
2024-03-16T06:46:57.693Z,7.20
2024-03-16T06:49:26.118Z,7.40
2024-03-16T06:51:54.382Z,7.50
2024-03-16T06:54:22.721Z,7.60
2024-03-16T06:56:50.911Z,7.00
2024-03-16T06:59:19.996Z,6.80
2024-03-16T07:01:48.208Z,7.50
2024-03-16T07:04:16.932Z,7.80
2024-03-16T07:06:45.342Z,7.80
2024-03-16T07:09:14.854Z,9.10
2024-03-16T07:11:47.799Z,10.90
2024-03-16T07:14:17.137Z,9.30
2024-03-16T07:16:45.326Z,13.00
2024-03-16T07:19:13.507Z,10.90
2024-03-16T07:21:41.901Z,10.00
2024-03-16T07:24:11.345Z,11.20
2024-03-16T07:26:39.651Z,12.70
2024-03-16T07:29:07.828Z,11.90
2024-03-16T07:31:36.758Z,19.30
2024-03-16T07:34:05.252Z,13.90
2024-03-16T07:36:33.433Z,14.00
2024-03-16T07:39:01.952Z,16.40
2024-03-16T07:41:30.747Z,12.60
2024-03-16T07:43:58.927Z,10.60
2024-03-16T07:46:27.300Z,10.00
2024-03-16T07:48:57.926Z,6.90
2024-03-16T07:51:32.841Z,11.20
2024-03-16T07:54:01.793Z,11.30
2024-03-16T07:56:29.932Z,8.50
2024-03-16T07:58:58.988Z,9.30
2024-03-16T08:01:27.447Z,7.40
2024-03-16T08:03:55.663Z,6.90
2024-03-16T08:06:23.876Z,10.10
2024-03-16T08:08:52.344Z,9.40
2024-03-16T08:11:23.443Z,8.90
2024-03-16T08:13:51.871Z,6.70
2024-03-16T08:16:20.129Z,9.00
2024-03-16T08:18:48.534Z,7.10
2024-03-16T08:21:17.601Z,13.20
2024-03-16T08:23:45.828Z,7.90
2024-03-16T08:26:14.260Z,14.40
2024-03-16T08:28:42.562Z,11.80
2024-03-16T08:31:10.866Z,14.40
2024-03-16T08:33:39.235Z,13.80
2024-03-16T08:36:08.012Z,20.30
2024-03-16T08:38:37.223Z,17.60
2024-03-16T08:41:06.278Z,12.70
2024-03-16T08:43:34.840Z,14.00
2024-03-16T08:46:07.443Z,17.60
2024-03-16T08:48:36.080Z,18.40
2024-03-16T08:51:05.977Z,22.80
2024-03-16T08:53:34.344Z,15.70
2024-03-16T08:56:08.031Z,17.70
2024-03-16T08:58:36.598Z,14.50
2024-03-16T09:01:05.009Z,17.70
2024-03-16T09:03:33.265Z,16.30
2024-03-16T09:06:02.897Z,28.20
2024-03-16T09:08:32.408Z,16.90
2024-03-16T09:11:00.746Z,13.50
2024-03-16T09:13:30.995Z,15.10
2024-03-16T09:15:59.422Z,15.90
2024-03-16T09:18:27.774Z,15.20
2024-03-16T09:20:56.054Z,19.10
2024-03-16T09:23:24.430Z,17.90
2024-03-16T09:25:57.287Z,23.60
2024-03-16T09:28:25.713Z,14.20
2024-03-16T09:30:56.566Z,12.60
2024-03-16T09:33:25.565Z,9.80
2024-03-16T09:35:53.970Z,15.80
2024-03-16T09:38:24.531Z,13.80
2024-03-16T09:40:53.766Z,17.90
2024-03-16T09:43:21.939Z,12.00
2024-03-16T09:45:50.708Z,13.90
2024-03-16T09:48:19.180Z,14.30
2024-03-16T09:50:49.166Z,15.60
2024-03-16T09:53:26.941Z,10.30
2024-03-16T09:55:57.804Z,10.30
2024-03-16T09:58:26.925Z,12.20
2024-03-16T10:00:56.123Z,9.70
2024-03-16T10:03:26.061Z,14.50
2024-03-16T10:05:54.545Z,13.90
2024-03-16T10:08:23.438Z,9.10
2024-03-16T10:10:51.823Z,11.10
2024-03-16T10:13:20.080Z,13.50
2024-03-16T10:15:48.429Z,10.20
2024-03-16T10:18:17.834Z,8.40
2024-03-16T10:20:46.148Z,8.90
2024-03-16T10:23:20.633Z,9.70
2024-03-16T10:25:49.717Z,10.60
2024-03-16T10:28:18.450Z,9.00
2024-03-16T10:30:47.172Z,8.60
2024-03-16T10:33:19.506Z,8.30
2024-03-16T10:35:47.787Z,9.30
2024-03-16T10:38:20.307Z,7.90
2024-03-16T10:40:50.748Z,8.60
2024-03-16T10:43:18.976Z,11.80
2024-03-16T10:45:48.787Z,9.20
2024-03-16T10:48:16.959Z,12.10
2024-03-16T10:50:48.409Z,13.20
2024-03-16T10:53:18.926Z,11.50
2024-03-16T10:55:48.754Z,11.80
2024-03-16T10:58:23.837Z,12.10
2024-03-16T11:01:04.331Z,12.30
2024-03-16T11:03:32.850Z,11.90
2024-03-16T11:06:12.279Z,9.50
2024-03-16T11:08:46.331Z,11.10
2024-03-16T11:11:20.101Z,15.20
2024-03-16T11:14:00.193Z,9.30
2024-03-16T11:16:34.263Z,8.80
2024-03-16T11:19:10.871Z,7.90
2024-03-16T11:21:39.943Z,10.00
2024-03-16T11:24:15.001Z,11.80
2024-03-16T11:26:47.644Z,9.10
2024-03-16T11:29:22.656Z,12.80
2024-03-16T11:31:57.948Z,8.40
2024-03-16T11:34:27.148Z,7.20
2024-03-16T11:36:56.958Z,6.60
2024-03-16T11:39:26.977Z,9.10
2024-03-16T11:41:57.207Z,8.00
2024-03-16T11:44:26.071Z,9.10
2024-03-16T11:46:55.086Z,6.50
2024-03-16T11:49:23.160Z,8.80
2024-03-16T11:51:59.635Z,9.10
2024-03-16T11:54:28.295Z,9.90
2024-03-16T11:56:58.623Z,8.70
2024-03-16T11:59:27.622Z,6.40
2024-03-16T12:01:56.834Z,7.10
2024-03-16T12:04:27.386Z,8.40
2024-03-16T12:06:58.842Z,11.00
2024-03-16T12:09:35.615Z,7.60
2024-03-16T12:12:09.141Z,9.00
2024-03-16T12:14:43.158Z,13.50
2024-03-16T12:17:13.063Z,16.70
2024-03-16T12:19:41.339Z,11.70
2024-03-16T12:22:16.452Z,10.80
2024-03-16T12:24:44.809Z,13.50
2024-03-16T12:27:13.579Z,7.70
2024-03-16T12:29:44.612Z,9.30
2024-03-16T12:32:13.010Z,9.10
2024-03-16T12:34:41.184Z,9.90
2024-03-16T12:37:09.355Z,11.30
2024-03-16T12:39:38.069Z,7.20
2024-03-16T12:42:07.552Z,10.30
2024-03-16T12:44:35.829Z,8.50
2024-03-16T12:47:04.207Z,8.20
2024-03-16T12:49:33.004Z,9.10
2024-03-16T12:52:01.385Z,10.70
2024-03-16T12:54:30.211Z,7.40
2024-03-16T12:56:59.591Z,9.60
2024-03-16T12:59:27.756Z,7.50
2024-03-16T13:01:57.054Z,7.30
2024-03-16T13:04:25.225Z,8.70
2024-03-16T13:06:53.402Z,6.80
2024-03-16T13:09:21.836Z,6.90
2024-03-16T13:11:50.786Z,8.10
2024-03-16T13:14:19.055Z,10.60
2024-03-16T13:16:47.333Z,8.90
2024-03-16T13:19:15.917Z,6.80
2024-03-16T13:21:47.487Z,7.20
2024-03-16T13:24:15.744Z,6.70
2024-03-16T13:26:44.127Z,7.00
2024-03-16T13:29:12.507Z,6.30
2024-03-16T13:31:40.783Z,6.50
2024-03-16T13:34:11.720Z,7.10
2024-03-16T13:36:40.438Z,6.10
2024-03-16T13:39:09.095Z,8.10
2024-03-16T13:41:37.379Z,7.90
2024-03-16T13:44:05.861Z,6.60
2024-03-16T13:46:34.321Z,6.60
2024-03-16T13:49:07.230Z,6.10
2024-03-16T13:51:35.501Z,5.80
2024-03-16T13:54:04.300Z,6.10
2024-03-16T13:56:35.230Z,7.30
2024-03-16T13:59:03.513Z,6.00
2024-03-16T14:01:31.682Z,6.30
2024-03-16T14:04:02.785Z,6.80
2024-03-16T14:06:30.917Z,7.00
2024-03-16T14:08:59.176Z,5.90
2024-03-16T14:11:27.593Z,9.60
2024-03-16T14:13:57.285Z,7.60
2024-03-16T14:16:25.749Z,6.00
2024-03-16T14:18:55.624Z,5.70
2024-03-16T14:21:23.840Z,5.60
2024-03-16T14:23:52.121Z,5.80
2024-03-16T14:26:20.312Z,5.50
2024-03-16T14:28:50.527Z,8.70
2024-03-16T14:31:18.904Z,6.60
2024-03-16T14:33:47.928Z,5.50
2024-03-16T14:36:18.523Z,5.00
2024-03-16T14:38:47.522Z,5.60
2024-03-16T14:41:16.788Z,6.30
2024-03-16T14:43:45.255Z,5.80
2024-03-16T14:46:13.890Z,8.00
2024-03-16T14:48:42.179Z,7.90
2024-03-16T14:51:10.643Z,5.60
2024-03-16T14:53:38.844Z,5.90
2024-03-16T14:56:07.041Z,5.40
2024-03-16T14:58:35.172Z,6.10
2024-03-16T15:01:03.974Z,7.00
2024-03-16T15:03:32.760Z,5.50
2024-03-16T15:06:01.333Z,5.60
2024-03-16T15:08:29.520Z,4.70
2024-03-16T15:10:58.310Z,6.40
2024-03-16T15:13:26.776Z,6.00
2024-03-16T15:15:54.961Z,5.30
2024-03-16T15:18:23.756Z,6.60
2024-03-16T15:20:53.469Z,4.80
2024-03-16T15:23:25.762Z,4.40
2024-03-16T15:26:05.993Z,5.50
2024-03-16T15:28:36.005Z,5.30
2024-03-16T15:31:04.794Z,5.30
2024-03-16T15:33:33.693Z,5.00
2024-03-16T15:36:01.986Z,25.00
2024-03-16T15:38:30.149Z,6.00
2024-03-16T15:40:58.686Z,7.00
2024-03-16T15:43:27.103Z,10.10
2024-03-16T15:45:55.278Z,5.60
2024-03-16T15:48:24.068Z,5.60
2024-03-16T15:50:53.068Z,6.10
2024-03-16T15:53:21.237Z,5.40
2024-03-16T15:55:51.973Z,6.80
2024-03-16T15:58:22.706Z,9.20
2024-03-16T16:00:51.092Z,7.00
2024-03-16T16:03:19.239Z,8.90
2024-03-16T16:05:47.541Z,7.90
2024-03-16T16:08:15.833Z,9.40
2024-03-16T16:10:45.627Z,8.00
2024-03-16T16:13:20.465Z,8.70
2024-03-16T16:15:48.845Z,12.90
2024-03-16T16:18:17.644Z,9.70
2024-03-16T16:20:46.535Z,9.40
2024-03-16T16:23:14.712Z,10.70
2024-03-16T16:25:42.897Z,8.90
2024-03-16T16:28:12.992Z,9.20
2024-03-16T16:30:41.620Z,12.60
2024-03-16T16:33:09.858Z,10.80
2024-03-16T16:35:38.493Z,10.90
2024-03-16T16:38:06.721Z,11.60
2024-03-16T16:40:36.538Z,10.70
2024-03-16T16:43:05.845Z,14.10
2024-03-16T16:45:34.110Z,12.00
2024-03-16T16:48:02.610Z,12.70
2024-03-16T16:50:30.768Z,13.90
2024-03-16T16:52:58.837Z,13.40
2024-03-16T16:55:27.218Z,17.50
2024-03-16T16:57:55.598Z,14.30
2024-03-16T17:00:24.703Z,16.70
2024-03-16T17:02:53.107Z,16.20
2024-03-16T17:05:21.258Z,15.90
2024-03-16T17:07:50.244Z,15.90
2024-03-16T17:10:18.411Z,19.20
2024-03-16T17:12:48.915Z,17.50
2024-03-16T17:15:17.536Z,15.40
2024-03-16T17:17:46.352Z,19.00
2024-03-16T17:20:19.212Z,12.80
2024-03-16T17:22:47.389Z,13.70
2024-03-16T17:25:17.570Z,16.40
2024-03-16T17:27:47.751Z,17.80
2024-03-16T17:30:16.221Z,14.90
2024-03-16T17:32:44.964Z,13.70
2024-03-16T17:35:15.942Z,11.60
2024-03-16T17:37:44.731Z,12.10
2024-03-16T17:40:15.169Z,12.70
2024-03-16T17:42:43.444Z,14.60
2024-03-16T17:45:11.626Z,12.40
2024-03-16T17:47:41.940Z,13.40
2024-03-16T17:50:10.064Z,10.90
2024-03-16T17:52:38.391Z,11.90
2024-03-16T17:55:06.834Z,13.30
2024-03-16T17:57:35.666Z,10.50
2024-03-16T18:00:06.460Z,11.70
2024-03-16T18:02:34.880Z,11.40
2024-03-16T18:05:02.934Z,35.20
2024-03-16T18:07:31.228Z,11.70
2024-03-16T18:09:59.614Z,11.00
2024-03-16T18:12:27.792Z,12.50
2024-03-16T18:14:58.447Z,13.70
2024-03-16T18:17:26.614Z,12.80
2024-03-16T18:19:55.481Z,18.30
2024-03-16T18:22:23.761Z,14.80
2024-03-16T18:24:55.569Z,15.30
2024-03-16T18:27:24.105Z,17.80
2024-03-16T18:29:52.387Z,17.80
2024-03-16T18:32:23.948Z,14.60
2024-03-16T18:34:52.214Z,11.70
2024-03-16T18:37:20.290Z,12.00
2024-03-16T18:39:49.293Z,10.90
2024-03-16T18:42:17.456Z,13.80
2024-03-16T18:44:45.630Z,16.10
2024-03-16T18:47:14.008Z,15.30
2024-03-16T18:49:42.137Z,10.00
2024-03-16T18:52:12.233Z,15.60
2024-03-16T18:54:40.480Z,15.70
2024-03-16T18:57:10.495Z,14.70
2024-03-16T18:59:38.681Z,14.20
2024-03-16T19:02:07.054Z,26.10
2024-03-16T19:04:35.354Z,23.40
2024-03-16T19:07:03.846Z,15.10
2024-03-16T19:09:32.512Z,21.50
2024-03-16T19:12:01.091Z,17.40
2024-03-16T19:14:29.446Z,17.60
2024-03-16T19:16:58.476Z,22.00
2024-03-16T19:19:28.277Z,21.90
2024-03-16T19:21:57.304Z,30.10
2024-03-16T19:24:29.026Z,25.70
2024-03-16T19:26:57.219Z,24.80
2024-03-16T19:29:25.390Z,28.40
2024-03-16T19:31:53.543Z,23.80
2024-03-16T19:34:21.623Z,27.60
2024-03-16T19:36:49.802Z,27.00
2024-03-16T19:39:20.541Z,30.20
2024-03-16T19:41:48.811Z,30.30
2024-03-16T19:44:17.091Z,30.30
2024-03-16T19:46:45.162Z,26.30
2024-03-16T19:49:13.849Z,28.40
2024-03-16T19:51:42.336Z,24.50
2024-03-16T19:54:10.511Z,23.90
2024-03-16T19:56:39.507Z,21.90
2024-03-16T19:59:07.683Z,21.00
2024-03-16T20:01:35.861Z,21.50
2024-03-16T20:04:04.337Z,22.20
2024-03-16T20:06:32.484Z,21.30
2024-03-16T20:09:00.586Z,20.20
2024-03-16T20:11:28.964Z,17.80
2024-03-16T20:13:57.135Z,21.20
2024-03-16T20:16:25.311Z,18.70
2024-03-16T20:18:53.488Z,18.50
2024-03-16T20:21:21.680Z,19.60
2024-03-16T20:23:52.606Z,21.10
2024-03-16T20:26:24.580Z,21.20
2024-03-16T20:28:52.639Z,18.30
2024-03-16T20:31:20.812Z,18.70
2024-03-16T20:33:49.498Z,18.20
2024-03-16T20:36:17.680Z,16.30
2024-03-16T20:38:45.952Z,18.90
2024-03-16T20:41:20.910Z,20.90
2024-03-16T20:43:49.262Z,18.50
2024-03-16T20:46:17.958Z,18.00
2024-03-16T20:48:46.435Z,16.90
2024-03-16T20:51:14.610Z,14.20
2024-03-16T20:53:42.812Z,17.50
2024-03-16T20:56:11.883Z,16.60
2024-03-16T20:58:39.954Z,18.00
2024-03-16T21:01:11.201Z,15.60
2024-03-16T21:03:39.377Z,16.40
2024-03-16T21:06:07.906Z,14.40
2024-03-16T21:08:36.344Z,14.30
2024-03-16T21:11:05.435Z,17.00
2024-03-16T21:13:38.092Z,13.40
2024-03-16T21:16:06.394Z,13.10
2024-03-16T21:18:35.028Z,16.10
2024-03-16T21:21:03.166Z,16.20
2024-03-16T21:23:32.830Z,18.00
2024-03-16T21:26:01.451Z,19.00
2024-03-16T21:28:30.560Z,18.60
2024-03-16T21:30:58.768Z,18.30
2024-03-16T21:33:27.128Z,17.30
2024-03-16T21:35:55.767Z,20.20
2024-03-16T21:38:23.966Z,16.00
2024-03-16T21:40:52.141Z,18.40
2024-03-16T21:43:20.211Z,18.50
2024-03-16T21:45:50.240Z,18.60
2024-03-16T21:48:19.021Z,19.30
2024-03-16T21:50:48.053Z,19.60
2024-03-16T21:53:16.403Z,16.90
2024-03-16T21:55:44.571Z,18.80
2024-03-16T21:58:12.743Z,16.10
2024-03-16T22:00:41.432Z,19.00
2024-03-16T22:03:10.026Z,21.40
2024-03-16T22:05:38.907Z,18.00
2024-03-16T22:08:07.698Z,21.70
2024-03-16T22:10:35.771Z,16.70
2024-03-16T22:13:04.054Z,16.90
2024-03-16T22:15:32.552Z,18.40
2024-03-16T22:18:00.714Z,15.40
2024-03-16T22:20:29.092Z,16.90
2024-03-16T22:22:57.272Z,12.70
2024-03-16T22:25:26.375Z,13.80
2024-03-16T22:27:54.533Z,16.40
2024-03-16T22:30:23.116Z,14.90
2024-03-16T22:32:53.026Z,16.60
2024-03-16T22:35:21.205Z,17.90
2024-03-16T22:37:49.387Z,16.90
2024-03-16T22:40:17.578Z,16.70
2024-03-16T22:42:46.448Z,15.10
2024-03-16T22:45:19.529Z,14.20
2024-03-16T22:47:47.919Z,15.80
2024-03-16T22:50:16.094Z,13.20
2024-03-16T22:52:44.478Z,15.70
2024-03-16T22:55:13.523Z,13.90
2024-03-16T22:57:41.752Z,17.40
2024-03-16T23:00:20.093Z,15.90
2024-03-16T23:02:48.800Z,13.20
2024-03-16T23:05:17.239Z,9.90
2024-03-16T23:07:46.119Z,10.10
2024-03-16T23:10:14.294Z,11.50
2024-03-16T23:12:42.683Z,10.90
2024-03-16T23:15:10.987Z,19.30
2024-03-16T23:17:39.335Z,17.50
2024-03-16T23:20:09.640Z,14.30
2024-03-16T23:22:40.732Z,12.40
2024-03-16T23:25:14.054Z,15.90
2024-03-16T23:27:42.584Z,12.90
2024-03-16T23:30:12.828Z,12.00
2024-03-16T23:32:46.974Z,13.60
2024-03-16T23:35:15.502Z,14.00
2024-03-16T23:37:43.778Z,15.30
2024-03-16T23:40:14.589Z,16.40
2024-03-16T23:42:43.207Z,13.50
2024-03-16T23:45:11.477Z,16.10
2024-03-16T23:47:39.679Z,24.30
2024-03-16T23:50:09.068Z,20.90
2024-03-16T23:52:37.731Z,18.10
2024-03-16T23:55:06.490Z,15.30
2024-03-16T23:57:34.709Z,16.20
